createdAt,value
2018-08-17T00:02:12.508Z,17.11
2018-08-17T00:04:40.524Z,17.12
2018-08-17T00:07:07.884Z,17.05
2018-08-17T00:09:35.238Z,17.00
2018-08-17T00:12:02.549Z,16.97
2018-08-17T00:14:29.871Z,16.99
2018-08-17T00:16:57.143Z,17.06
2018-08-17T00:19:24.707Z,17.10
2018-08-17T00:21:52.037Z,17.09
2018-08-17T00:24:19.596Z,17.10
2018-08-17T00:26:47.211Z,17.00
2018-08-17T00:29:14.750Z,16.97
2018-08-17T00:31:42.026Z,16.84
2018-08-17T00:34:09.287Z,16.89
2018-08-17T00:36:36.598Z,17.01
2018-08-17T00:39:06.148Z,17.02
2018-08-17T00:41:33.502Z,16.97
2018-08-17T00:44:01.033Z,16.99
2018-08-17T00:46:29.469Z,16.95
2018-08-17T00:48:56.765Z,16.93
2018-08-17T00:51:23.987Z,16.85
2018-08-17T00:53:51.374Z,16.86
2018-08-17T00:56:18.621Z,16.87
2018-08-17T00:58:46.229Z,16.82
2018-08-17T01:01:13.492Z,16.92
2018-08-17T01:03:41.109Z,16.92
2018-08-17T01:06:08.495Z,16.85
2018-08-17T01:08:35.979Z,16.83
2018-08-17T01:11:03.371Z,16.78
2018-08-17T01:13:30.858Z,16.80
2018-08-17T01:15:58.642Z,16.77
2018-08-17T01:18:26.041Z,16.74
2018-08-17T01:20:53.331Z,16.70
2018-08-17T01:23:20.654Z,16.79
2018-08-17T01:25:48.406Z,16.76
2018-08-17T01:28:16.047Z,16.76
2018-08-17T01:30:43.670Z,16.72
2018-08-17T01:33:11.056Z,16.64
2018-08-17T01:35:38.338Z,16.74
2018-08-17T01:38:05.590Z,16.75
2018-08-17T01:40:32.881Z,16.75
2018-08-17T01:43:00.233Z,16.66
2018-08-17T01:45:27.621Z,16.55
2018-08-17T01:47:54.874Z,16.67
2018-08-17T01:50:22.231Z,16.72
2018-08-17T01:52:49.482Z,16.69
2018-08-17T01:55:16.833Z,16.67
2018-08-17T01:57:44.137Z,16.68
2018-08-17T02:00:11.749Z,16.65
2018-08-17T02:02:42.429Z,16.65
2018-08-17T02:05:10.237Z,16.64
2018-08-17T02:07:37.682Z,16.63
2018-08-17T02:10:07.005Z,16.45
2018-08-17T02:12:34.228Z,16.37
2018-08-17T02:15:01.668Z,16.40
2018-08-17T02:17:28.987Z,16.43
2018-08-17T02:19:56.342Z,16.25
2018-08-17T02:22:23.620Z,16.38
2018-08-17T02:24:50.864Z,16.45
2018-08-17T02:27:18.150Z,16.43
2018-08-17T02:29:45.443Z,16.39
2018-08-17T02:32:13.266Z,16.31
2018-08-17T02:34:40.874Z,16.33
2018-08-17T02:37:08.321Z,16.15
2018-08-17T02:39:35.626Z,16.21
2018-08-17T02:42:03.716Z,16.30
2018-08-17T02:44:31.766Z,16.35
2018-08-17T02:46:59.466Z,16.26
2018-08-17T02:49:26.772Z,16.30
2018-08-17T02:54:37.750Z,16.32
2018-08-17T02:57:05.373Z,16.23
2018-08-17T02:59:33.109Z,16.23
2018-08-17T03:02:00.532Z,16.25
2018-08-17T03:04:28.254Z,16.28
2018-08-17T03:06:56.299Z,16.19
2018-08-17T03:09:23.605Z,16.18
2018-08-17T03:11:51.012Z,16.21
2018-08-17T03:14:18.317Z,16.22
2018-08-17T03:16:45.985Z,16.20
2018-08-17T03:19:13.945Z,16.13
2018-08-17T03:21:41.195Z,16.22
2018-08-17T03:24:08.495Z,16.10
2018-08-17T03:26:35.786Z,16.15
2018-08-17T03:29:03.228Z,16.20
2018-08-17T03:31:30.707Z,16.22
2018-08-17T03:33:58.005Z,16.21
2018-08-17T03:36:25.346Z,16.13
2018-08-17T03:38:52.585Z,16.05
2018-08-17T03:41:19.880Z,16.12
2018-08-17T03:43:47.274Z,16.10
2018-08-17T03:46:14.512Z,16.11
2018-08-17T03:48:41.950Z,16.10
2018-08-17T03:51:09.313Z,16.04
2018-08-17T03:53:36.860Z,16.07
2018-08-17T03:56:04.246Z,16.03
2018-08-17T03:58:32.113Z,15.99
2018-08-17T04:00:59.611Z,16.00
2018-08-17T04:03:27.273Z,15.98
2018-08-17T04:05:54.689Z,15.94
2018-08-17T04:08:22.367Z,15.83
2018-08-17T04:10:49.670Z,15.80
2018-08-17T04:13:16.944Z,15.73
2018-08-17T04:15:44.356Z,15.65
2018-08-17T04:18:11.650Z,15.61
2018-08-17T04:20:39.278Z,15.60
2018-08-17T04:23:06.542Z,15.70
2018-08-17T04:25:33.993Z,15.61
2018-08-17T04:28:01.558Z,15.55
2018-08-17T04:30:28.898Z,15.55
2018-08-17T04:32:57.158Z,15.54
2018-08-17T04:35:24.464Z,15.50
2018-08-17T04:37:51.689Z,15.54
2018-08-17T04:40:18.979Z,15.64
2018-08-17T04:42:46.321Z,15.42
2018-08-17T04:45:14.285Z,15.43
2018-08-17T04:47:41.653Z,15.48
2018-08-17T04:50:09.449Z,15.57
2018-08-17T04:52:37.769Z,15.44
2018-08-17T04:55:05.441Z,15.43
2018-08-17T04:57:32.947Z,15.45
2018-08-17T05:00:00.231Z,15.48
2018-08-17T05:02:27.522Z,15.46
2018-08-17T05:04:54.815Z,15.46
2018-08-17T05:07:22.449Z,15.42
2018-08-17T05:09:49.749Z,15.52
2018-08-17T05:12:17.079Z,15.37
2018-08-17T05:14:44.350Z,15.44
2018-08-17T05:17:11.711Z,15.41
2018-08-17T05:19:39.059Z,15.48
2018-08-17T05:22:06.391Z,15.41
2018-08-17T05:24:33.663Z,15.37
2018-08-17T05:27:00.952Z,15.38
2018-08-17T05:29:28.365Z,15.41
2018-08-17T05:31:55.791Z,15.36
2018-08-17T05:34:23.090Z,15.34
2018-08-17T05:36:50.318Z,15.36
2018-08-17T05:39:17.603Z,15.36
2018-08-17T05:41:44.946Z,15.43
2018-08-17T05:44:12.291Z,15.72
2018-08-17T05:46:39.639Z,15.42
2018-08-17T05:49:06.933Z,15.35
2018-08-17T05:51:34.235Z,15.37
2018-08-17T05:54:01.486Z,15.60
2018-08-17T05:56:28.896Z,15.45
2018-08-17T05:58:56.192Z,15.48
2018-08-17T06:01:23.516Z,15.48
2018-08-17T06:03:50.952Z,15.53
2018-08-17T06:06:18.267Z,15.54
2018-08-17T06:08:45.811Z,15.63
2018-08-17T06:11:13.475Z,15.60
2018-08-17T06:13:40.853Z,15.62
2018-08-17T06:16:08.480Z,15.62
2018-08-17T06:18:36.329Z,15.64
2018-08-17T06:21:04.051Z,15.65
2018-08-17T06:23:31.331Z,15.73
2018-08-17T06:25:58.743Z,15.75
2018-08-17T06:28:26.230Z,15.91
2018-08-17T06:30:54.235Z,15.86
2018-08-17T06:33:21.550Z,15.91
2018-08-17T06:35:49.959Z,15.97
2018-08-17T06:38:17.741Z,16.04
2018-08-17T06:40:45.325Z,16.05
2018-08-17T06:43:12.955Z,16.10
2018-08-17T06:45:40.345Z,16.17
2018-08-17T06:48:07.765Z,16.22
2018-08-17T06:50:35.434Z,16.18
2018-08-17T06:53:03.227Z,16.30
2018-08-17T06:55:30.751Z,16.39
2018-08-17T06:57:58.235Z,16.53
2018-08-17T07:00:25.601Z,16.84
2018-08-17T07:02:53.211Z,16.66
2018-08-17T07:05:20.812Z,16.70
2018-08-17T07:07:48.402Z,16.84
2018-08-17T07:10:15.651Z,17.04
2018-08-17T07:12:43.220Z,17.17
2018-08-17T07:15:10.649Z,17.28
2018-08-17T07:17:38.163Z,17.38
2018-08-17T07:20:06.596Z,17.53
2018-08-17T07:22:33.968Z,17.59
2018-08-17T07:25:01.653Z,17.70
2018-08-17T07:27:28.983Z,17.78
2018-08-17T07:29:57.714Z,17.94
2018-08-17T07:32:25.165Z,17.95
2018-08-17T07:34:52.524Z,18.07
2018-08-17T07:37:19.830Z,18.28
2018-08-17T07:39:47.187Z,18.43
2018-08-17T07:42:14.826Z,18.71
2018-08-17T07:44:42.422Z,19.10
2018-08-17T07:47:09.879Z,19.30
2018-08-17T07:49:37.341Z,19.67
2018-08-17T07:52:04.799Z,19.57
2018-08-17T07:54:33.149Z,19.97
2018-08-17T07:57:00.617Z,19.67
2018-08-17T07:59:28.036Z,19.42
2018-08-17T08:01:55.699Z,19.32
2018-08-17T08:04:23.151Z,19.07
2018-08-17T08:06:50.577Z,18.90
2018-08-17T08:09:18.037Z,18.93
2018-08-17T08:11:46.531Z,18.92
2018-08-17T08:14:14.211Z,18.80
2018-08-17T08:16:42.200Z,18.91
2018-08-17T08:19:12.233Z,18.76
2018-08-17T08:21:42.344Z,18.58
2018-08-17T08:24:09.725Z,18.70
2018-08-17T08:26:37.533Z,18.90
2018-08-17T08:29:05.028Z,18.71
2018-08-17T08:31:32.543Z,18.48
2018-08-17T08:34:00.359Z,18.64
2018-08-17T08:36:27.805Z,18.58
2018-08-17T08:38:55.305Z,18.76
2018-08-17T08:41:22.891Z,18.65
2018-08-17T08:43:50.609Z,18.64
2018-08-17T08:46:18.000Z,18.74
2018-08-17T08:48:45.366Z,18.78
2018-08-17T08:51:12.880Z,18.88
2018-08-17T08:53:40.211Z,18.95
2018-08-17T08:56:07.612Z,18.72
2018-08-17T08:58:34.843Z,18.70
2018-08-17T09:01:02.271Z,18.65
2018-08-17T09:03:30.422Z,19.02
2018-08-17T09:05:58.395Z,19.11
2018-08-17T09:08:26.590Z,19.29
2018-08-17T09:10:54.037Z,19.54
2018-08-17T09:13:21.447Z,19.62
2018-08-17T09:15:48.831Z,19.43
2018-08-17T09:18:16.258Z,19.24
2018-08-17T09:20:43.642Z,19.23
2018-08-17T09:23:11.202Z,19.33
2018-08-17T09:25:38.801Z,19.47
2018-08-17T09:28:06.312Z,19.44
2018-08-17T09:30:33.752Z,19.32
2018-08-17T09:33:01.137Z,19.05
2018-08-17T09:35:28.686Z,19.27
2018-08-17T09:37:56.057Z,19.38
2018-08-17T09:40:23.589Z,19.60
2018-08-17T09:42:51.149Z,19.92
2018-08-17T09:45:18.635Z,19.69
2018-08-17T09:47:46.034Z,19.41
2018-08-17T09:50:14.561Z,19.20
2018-08-17T09:52:41.964Z,19.40
2018-08-17T09:55:09.466Z,19.73
2018-08-17T09:57:36.993Z,19.92
2018-08-17T10:00:05.713Z,20.08
2018-08-17T10:02:38.793Z,19.84
2018-08-17T10:05:12.043Z,19.49
2018-08-17T10:07:44.952Z,19.92
2018-08-17T10:10:21.470Z,20.17
2018-08-17T10:12:50.050Z,20.34
2018-08-17T10:15:17.568Z,20.50
2018-08-17T10:17:45.126Z,20.55
2018-08-17T10:20:20.583Z,20.97
2018-08-17T10:22:48.543Z,21.71
2018-08-17T10:25:17.326Z,24.31
2018-08-17T10:27:45.909Z,24.03
2018-08-17T10:30:13.472Z,23.38
2018-08-17T10:32:48.259Z,22.08
2018-08-17T10:35:21.383Z,22.03
2018-08-17T10:37:48.971Z,23.80
2018-08-17T10:40:16.449Z,26.06
2018-08-17T10:42:43.857Z,27.81
2018-08-17T10:45:11.477Z,27.61
2018-08-17T10:47:38.840Z,27.86
2018-08-17T10:50:11.656Z,27.65
2018-08-17T10:52:39.144Z,25.92
2018-08-17T10:55:06.988Z,25.53
2018-08-17T10:57:34.467Z,27.71
2018-08-17T11:00:01.824Z,27.24
2018-08-17T11:02:29.253Z,27.83
2018-08-17T11:04:57.471Z,26.61
2018-08-17T11:07:30.252Z,24.97
2018-08-17T11:09:57.634Z,24.56
2018-08-17T11:12:25.078Z,24.12
2018-08-17T11:14:52.710Z,24.19
2018-08-17T11:17:20.290Z,23.93
2018-08-17T11:19:47.628Z,24.92
2018-08-17T11:22:15.456Z,25.84
2018-08-17T11:24:42.918Z,24.44
2018-08-17T11:27:10.472Z,26.83
2018-08-17T11:29:37.862Z,23.94
2018-08-17T11:32:05.295Z,24.12
2018-08-17T11:34:32.655Z,24.49
2018-08-17T11:36:59.946Z,24.22
2018-08-17T11:39:27.370Z,24.66
2018-08-17T11:41:54.790Z,28.03
2018-08-17T11:44:22.142Z,31.68
2018-08-17T11:46:49.501Z,32.44
2018-08-17T11:49:16.962Z,33.07
2018-08-17T11:51:44.416Z,32.35
2018-08-17T11:54:12.116Z,33.97
2018-08-17T11:56:39.822Z,33.44
2018-08-17T11:59:07.218Z,33.75
2018-08-17T12:01:35.030Z,33.06
2018-08-17T12:04:02.763Z,30.62
2018-08-17T12:06:30.174Z,31.88
2018-08-17T12:08:57.621Z,32.31
2018-08-17T12:11:25.079Z,32.66
2018-08-17T12:13:52.447Z,31.78
2018-08-17T12:16:19.825Z,32.66
2018-08-17T12:18:47.375Z,32.89
2018-08-17T12:21:14.938Z,32.88
2018-08-17T12:23:43.017Z,34.16
2018-08-17T12:26:10.441Z,33.66
2018-08-17T12:28:37.865Z,34.27
2018-08-17T12:31:05.597Z,31.96
2018-08-17T12:33:32.957Z,33.13
2018-08-17T12:36:00.302Z,34.08
2018-08-17T12:38:27.607Z,34.78
2018-08-17T12:40:55.850Z,31.26
2018-08-17T12:43:33.819Z,32.39
2018-08-17T12:46:01.181Z,32.84
2018-08-17T12:48:28.608Z,33.30
2018-08-17T12:51:01.634Z,33.26
2018-08-17T12:53:30.166Z,33.35
2018-08-17T12:55:57.650Z,33.27
2018-08-17T12:58:25.369Z,31.22
2018-08-17T13:00:52.682Z,30.99
2018-08-17T13:03:20.135Z,32.01
2018-08-17T13:05:47.641Z,32.30
2018-08-17T13:08:15.025Z,33.25
2018-08-17T13:40:22.469Z,26.74
2018-08-17T13:42:49.772Z,26.96
2018-08-17T13:45:17.045Z,27.87
2018-08-17T13:47:44.355Z,26.50
2018-08-17T13:50:11.717Z,27.76
2018-08-17T13:52:39.055Z,25.74
2018-08-17T13:55:06.357Z,27.01
2018-08-17T13:57:33.903Z,26.91
2018-08-17T14:00:01.271Z,26.78
2018-08-17T14:02:28.568Z,27.00
2018-08-17T14:04:55.881Z,27.36
2018-08-17T14:07:23.207Z,27.33
2018-08-17T14:09:50.887Z,26.88
2018-08-17T14:12:18.967Z,26.50
2018-08-17T14:14:46.255Z,26.33
2018-08-17T14:17:13.881Z,26.73
2018-08-17T14:19:41.509Z,27.15
2018-08-17T14:22:08.981Z,26.40
2018-08-17T14:24:36.389Z,27.67
2018-08-17T14:27:03.914Z,26.29
2018-08-17T14:29:31.260Z,26.52
2018-08-17T14:31:58.613Z,26.25
2018-08-17T14:34:26.135Z,26.67
2018-08-17T14:36:53.336Z,26.52
2018-08-17T14:39:20.850Z,27.01
2018-08-17T14:42:02.107Z,27.22
2018-08-17T14:44:29.892Z,26.24
2018-08-17T14:46:57.191Z,26.28
2018-08-17T14:49:25.049Z,26.33
2018-08-17T14:51:52.712Z,25.99
2018-08-17T14:54:20.579Z,25.58
2018-08-17T14:56:48.113Z,24.99
2018-08-17T14:59:16.035Z,25.23
2018-08-17T15:01:43.658Z,25.15
2018-08-17T15:04:11.160Z,25.24
2018-08-17T15:06:38.789Z,24.42
2018-08-17T15:09:08.252Z,24.52
2018-08-17T15:11:36.120Z,24.75
2018-08-17T15:14:03.753Z,24.15
2018-08-17T15:16:32.023Z,23.64
2018-08-17T15:18:59.864Z,23.78
2018-08-17T15:21:27.250Z,24.10
2018-08-17T15:23:55.813Z,23.97
2018-08-17T15:26:24.474Z,24.60
2018-08-17T15:28:51.933Z,25.46
2018-08-17T15:31:19.428Z,25.18
2018-08-17T15:33:46.998Z,25.06
2018-08-17T15:36:14.361Z,25.15
2018-08-17T15:38:42.113Z,25.54
2018-08-17T15:41:10.000Z,24.48
2018-08-17T15:43:37.754Z,24.84
2018-08-17T15:46:05.242Z,25.05
2018-08-17T15:48:39.675Z,24.89
2018-08-17T15:51:09.975Z,24.66
2018-08-17T15:53:37.619Z,24.14
2018-08-17T15:56:04.981Z,24.32
2018-08-17T15:58:32.334Z,24.97
2018-08-17T16:00:59.722Z,24.87
2018-08-17T16:03:27.180Z,24.55
2018-08-17T16:05:54.409Z,24.40
2018-08-17T16:08:21.689Z,24.20
2018-08-17T16:10:48.972Z,25.64
2018-08-17T16:13:16.322Z,24.44
2018-08-17T16:15:43.716Z,24.24
2018-08-17T16:18:11.182Z,24.27
2018-08-17T16:20:38.415Z,24.93
2018-08-17T16:23:05.788Z,24.73
2018-08-17T16:25:33.233Z,24.19
2018-08-17T16:28:00.582Z,24.12
2018-08-17T16:30:27.834Z,24.30
2018-08-17T16:32:55.189Z,23.72
2018-08-17T16:35:22.497Z,23.04
2018-08-17T16:37:49.793Z,22.57
2018-08-17T16:40:17.065Z,21.71
2018-08-17T16:42:45.804Z,21.95
2018-08-17T16:45:13.307Z,22.01
2018-08-17T16:47:40.749Z,21.79
2018-08-17T16:50:08.816Z,21.98
2018-08-17T16:52:36.304Z,21.43
2018-08-17T16:55:04.240Z,21.44
2018-08-17T16:57:31.582Z,21.55
2018-08-17T16:59:58.917Z,21.07
2018-08-17T17:02:26.373Z,20.69
2018-08-17T17:04:53.730Z,20.99
2018-08-17T17:07:26.600Z,21.14
2018-08-17T17:09:54.033Z,21.08
2018-08-17T17:12:21.385Z,21.05
2018-08-17T17:14:49.015Z,20.75
2018-08-17T17:17:16.505Z,20.50
2018-08-17T17:19:43.952Z,20.86
2018-08-17T17:22:11.883Z,20.63
2018-08-17T17:24:39.216Z,20.26
2018-08-17T17:27:07.154Z,20.57
2018-08-17T17:29:35.835Z,20.58
2018-08-17T17:32:03.448Z,20.51
2018-08-17T17:34:30.840Z,20.32
2018-08-17T17:36:58.752Z,20.41
2018-08-17T17:39:26.343Z,20.40
2018-08-17T17:41:53.833Z,20.22
2018-08-17T17:44:21.594Z,19.99
2018-08-17T17:46:49.083Z,19.84
2018-08-17T17:49:16.412Z,19.86
2018-08-17T17:51:43.798Z,19.92
2018-08-17T17:54:20.166Z,19.92
2018-08-17T17:56:51.778Z,19.94
2018-08-17T17:59:19.074Z,19.72
2018-08-17T18:01:47.410Z,19.71
2018-08-17T18:04:15.216Z,19.80
2018-08-17T18:06:42.678Z,19.77
2018-08-17T18:09:09.983Z,19.61
2018-08-17T18:11:37.291Z,19.64
2018-08-17T18:14:04.621Z,19.47
2018-08-17T18:16:32.000Z,19.42
2018-08-17T18:18:59.412Z,19.60
2018-08-17T18:21:29.771Z,19.50
2018-08-17T18:24:12.049Z,19.57
2018-08-17T18:26:45.006Z,19.50
2018-08-17T18:29:12.513Z,19.47
2018-08-17T18:31:39.813Z,19.47
2018-08-17T18:34:07.066Z,19.27
2018-08-17T18:36:34.415Z,19.13
2018-08-17T18:39:02.116Z,19.15
2018-08-17T18:41:29.681Z,19.09
2018-08-17T18:43:57.324Z,19.09
2018-08-17T18:46:24.826Z,19.02
2018-08-17T18:48:52.826Z,18.97
2018-08-17T18:51:20.277Z,18.89
2018-08-17T18:53:47.891Z,18.79
2018-08-17T18:56:15.634Z,18.85
2018-08-17T18:58:43.106Z,18.67
2018-08-17T19:01:10.722Z,18.66
2018-08-17T19:03:38.212Z,18.57
2018-08-17T19:06:06.095Z,18.62
2018-08-17T19:08:33.494Z,18.45
2018-08-17T19:11:01.426Z,18.48
2018-08-17T19:13:29.097Z,18.43
2018-08-17T19:15:56.922Z,18.37
2018-08-17T19:18:29.082Z,18.30
2018-08-17T19:21:01.609Z,18.30
2018-08-17T19:23:29.067Z,18.15
2018-08-17T19:25:58.088Z,18.29
2018-08-17T19:28:25.456Z,18.20
2018-08-17T19:30:53.309Z,18.27
2018-08-17T19:33:21.479Z,18.17
2018-08-17T19:35:48.831Z,18.10
2018-08-17T19:38:16.418Z,18.00
2018-08-17T19:40:43.652Z,17.98
2018-08-17T19:43:11.156Z,18.05
2018-08-17T19:45:39.333Z,17.95
2018-08-17T19:48:06.825Z,17.95
2018-08-17T19:50:34.652Z,17.90
2018-08-17T19:53:02.050Z,17.88
2018-08-17T19:55:29.365Z,17.84
2018-08-17T19:57:56.830Z,17.76
2018-08-17T20:00:24.907Z,17.60
2018-08-17T20:02:52.427Z,17.63
2018-08-17T20:05:19.790Z,17.62
2018-08-17T20:07:47.177Z,17.51
2018-08-17T20:10:14.720Z,17.56
2018-08-17T20:12:43.106Z,17.54
2018-08-17T20:15:10.451Z,17.42
2018-08-17T20:17:38.089Z,17.42
2018-08-17T20:20:07.931Z,17.32
2018-08-17T20:22:35.321Z,17.42
2018-08-17T20:25:12.064Z,17.34
2018-08-17T20:27:39.733Z,17.35
2018-08-17T20:30:13.022Z,17.28
2018-08-17T20:32:40.375Z,17.16
2018-08-17T20:35:07.794Z,17.16
2018-08-17T20:37:37.593Z,17.22
2018-08-17T20:40:05.474Z,17.18
2018-08-17T20:42:33.435Z,16.99
2018-08-17T20:45:01.086Z,17.01
2018-08-17T20:47:28.706Z,17.14
2018-08-17T20:49:56.078Z,17.04
2018-08-17T20:52:23.407Z,17.02
2018-08-17T20:54:51.020Z,17.01
2018-08-17T20:57:18.449Z,16.94
2018-08-17T20:59:45.773Z,16.84
2018-08-17T21:02:13.118Z,16.83
2018-08-17T21:04:40.717Z,16.88
2018-08-17T21:07:08.494Z,16.93
2018-08-17T21:09:36.189Z,16.79
2018-08-17T21:12:04.906Z,16.84
2018-08-17T21:14:32.198Z,16.78
2018-08-17T21:16:59.564Z,16.83
2018-08-17T21:19:32.528Z,16.75
2018-08-17T21:22:00.289Z,16.79
2018-08-17T21:24:27.656Z,16.72
2018-08-17T21:26:55.457Z,16.70
2018-08-17T21:29:22.896Z,16.76
2018-08-17T21:31:51.622Z,16.73
2018-08-17T21:34:19.086Z,16.58
2018-08-17T21:36:46.507Z,16.72
2018-08-17T21:39:16.651Z,16.67
2018-08-17T21:41:45.195Z,16.60
2018-08-17T21:44:13.774Z,16.55
2018-08-17T21:47:05.734Z,16.61
2018-08-17T21:49:34.011Z,16.53
2018-08-17T21:52:03.124Z,16.61
2018-08-17T21:54:31.286Z,16.60
2018-08-17T21:56:59.598Z,16.56
2018-08-17T21:59:32.378Z,16.58
2018-08-17T22:02:00.234Z,16.57
2018-08-17T22:04:27.892Z,16.46
2018-08-17T22:06:55.165Z,16.59
2018-08-17T22:09:33.978Z,16.54
2018-08-17T22:12:01.277Z,16.48
2018-08-17T22:14:29.178Z,16.52
2018-08-17T22:16:57.233Z,16.49
2018-08-17T22:19:35.813Z,16.49
2018-08-17T22:22:03.245Z,16.43
2018-08-17T22:24:31.561Z,16.41
2018-08-17T22:26:59.033Z,16.38
2018-08-17T22:29:26.375Z,16.44
2018-08-17T22:31:53.774Z,16.40
2018-08-17T22:34:22.079Z,16.29
2018-08-17T22:36:49.627Z,16.36
2018-08-17T22:39:17.280Z,16.38
2018-08-17T22:41:44.779Z,16.40
2018-08-17T22:44:17.812Z,16.30
2018-08-17T22:46:55.281Z,16.35
2018-08-17T22:49:22.663Z,16.34
2018-08-17T22:51:50.257Z,16.36
2018-08-17T22:54:17.637Z,16.32
2018-08-17T22:56:44.950Z,16.24
2018-08-17T22:59:12.249Z,16.26
2018-08-17T23:01:39.562Z,16.29
2018-08-17T23:04:07.690Z,16.26
2018-08-17T23:06:35.152Z,16.29
2018-08-17T23:09:02.679Z,16.25
2018-08-17T23:11:35.717Z,16.26
2018-08-17T23:14:10.473Z,16.22
2018-08-17T23:16:37.766Z,16.28
2018-08-17T23:19:05.481Z,16.29
2018-08-17T23:21:32.740Z,16.25
2018-08-17T23:24:00.806Z,16.35
2018-08-17T23:26:28.117Z,16.35
2018-08-17T23:28:56.286Z,16.29
2018-08-17T23:31:23.537Z,16.25
2018-08-17T23:33:50.989Z,16.24
2018-08-17T23:36:18.226Z,16.24
2018-08-17T23:38:45.502Z,16.24
2018-08-17T23:41:14.485Z,16.33
2018-08-17T23:43:41.798Z,16.29
2018-08-17T23:46:09.428Z,16.37
2018-08-17T23:48:36.774Z,16.35
2018-08-17T23:51:04.027Z,16.36
2018-08-17T23:53:32.427Z,16.37
2018-08-17T23:55:59.921Z,16.29
2018-08-17T23:58:27.985Z,16.29
